sensor_id;sensor_type;location;lat;lon;timestamp;P1;durP1;ratioP1;P2;durP2;ratioP2
769;SDS011;368;48.698;9.116;2022-09-11T00:01:35;3.73;;;1.93;;
769;SDS011;368;48.698;9.116;2022-09-11T00:04:04;2.17;;;1.97;;
769;SDS011;368;48.698;9.116;2022-09-11T00:06:31;6.00;;;2.00;;
769;SDS011;368;48.698;9.116;2022-09-11T00:08:58;2.10;;;1.90;;
769;SDS011;368;48.698;9.116;2022-09-11T00:11:27;2.33;;;1.70;;
769;SDS011;368;48.698;9.116;2022-09-11T00:13:55;1.90;;;1.70;;
769;SDS011;368;48.698;9.116;2022-09-11T00:16:24;2.33;;;1.70;;
769;SDS011;368;48.698;9.116;2022-09-11T00:18:53;1.97;;;1.77;;
769;SDS011;368;48.698;9.116;2022-09-11T00:21:21;2.50;;;1.70;;
769;SDS011;368;48.698;9.116;2022-09-11T00:23:48;1.93;;;1.80;;
769;SDS011;368;48.698;9.116;2022-09-11T00:26:15;3.70;;;2.20;;
769;SDS011;368;48.698;9.116;2022-09-11T00:28:43;2.73;;;1.53;;
769;SDS011;368;48.698;9.116;2022-09-11T00:31:11;6.40;;;2.63;;
769;SDS011;368;48.698;9.116;2022-09-11T00:33:41;2.20;;;2.00;;
769;SDS011;368;48.698;9.116;2022-09-11T00:36:09;2.30;;;2.10;;
769;SDS011;368;48.698;9.116;2022-09-11T00:38:38;2.40;;;1.90;;
769;SDS011;368;48.698;9.116;2022-09-11T00:41:06;4.60;;;2.00;;
769;SDS011;368;48.698;9.116;2022-09-11T00:43:51;3.27;;;2.00;;
769;SDS011;368;48.698;9.116;2022-09-11T00:46:20;3.20;;;1.60;;
769;SDS011;368;48.698;9.116;2022-09-11T00:48:51;1.50;;;1.40;;
769;SDS011;368;48.698;9.116;2022-09-11T00:51:23;3.00;;;2.00;;
769;SDS011;368;48.698;9.116;2022-09-11T00:53:54;2.73;;;1.97;;
769;SDS011;368;48.698;9.116;2022-09-11T00:56:24;2.50;;;1.60;;
769;SDS011;368;48.698;9.116;2022-09-11T00:58:55;5.30;;;2.17;;
769;SDS011;368;48.698;9.116;2022-09-11T01:01:23;1.93;;;1.80;;
769;SDS011;368;48.698;9.116;2022-09-11T01:03:51;2.33;;;1.90;;
769;SDS011;368;48.698;9.116;2022-09-11T01:06:20;1.50;;;1.40;;
769;SDS011;368;48.698;9.116;2022-09-11T01:08:47;2.90;;;1.93;;
769;SDS011;368;48.698;9.116;2022-09-11T01:11:19;1.87;;;1.70;;
769;SDS011;368;48.698;9.116;2022-09-11T01:13:56;4.23;;;1.83;;
769;SDS011;368;48.698;9.116;2022-09-11T01:16:32;1.90;;;1.80;;
769;SDS011;368;48.698;9.116;2022-09-11T01:19:09;2.47;;;1.83;;
769;SDS011;368;48.698;9.116;2022-09-11T01:21:54;2.40;;;2.00;;
769;SDS011;368;48.698;9.116;2022-09-11T01:24:53;2.00;;;1.90;;
769;SDS011;368;48.698;9.116;2022-09-11T01:30:16;4.80;;;2.17;;
769;SDS011;368;48.698;9.116;2022-09-11T01:32:51;3.70;;;2.13;;
769;SDS011;368;48.698;9.116;2022-09-11T01:35:39;2.27;;;2.07;;
769;SDS011;368;48.698;9.116;2022-09-11T01:38:13;2.50;;;1.90;;
769;SDS011;368;48.698;9.116;2022-09-11T01:40:44;2.03;;;1.83;;
769;SDS011;368;48.698;9.116;2022-09-11T01:43:20;2.80;;;2.23;;
769;SDS011;368;48.698;9.116;2022-09-11T01:45:51;3.13;;;2.07;;
769;SDS011;368;48.698;9.116;2022-09-11T01:48:20;2.20;;;2.00;;
769;SDS011;368;48.698;9.116;2022-09-11T01:50:50;2.40;;;2.20;;
769;SDS011;368;48.698;9.116;2022-09-11T01:53:20;2.07;;;1.87;;
769;SDS011;368;48.698;9.116;2022-09-11T01:55:50;2.43;;;2.07;;
769;SDS011;368;48.698;9.116;2022-09-11T01:58:23;3.07;;;2.40;;
769;SDS011;368;48.698;9.116;2022-09-11T02:00:53;2.07;;;1.77;;
769;SDS011;368;48.698;9.116;2022-09-11T02:03:24;5.47;;;2.67;;
769;SDS011;368;48.698;9.116;2022-09-11T02:05:57;3.40;;;2.07;;
769;SDS011;368;48.698;9.116;2022-09-11T02:08:27;3.17;;;2.20;;
769;SDS011;368;48.698;9.116;2022-09-11T02:10:57;3.13;;;1.90;;
769;SDS011;368;48.698;9.116;2022-09-11T02:13:30;1.80;;;1.70;;
769;SDS011;368;48.698;9.116;2022-09-11T02:16:02;3.50;;;2.30;;
769;SDS011;368;48.698;9.116;2022-09-11T02:18:34;3.90;;;2.70;;
769;SDS011;368;48.698;9.116;2022-09-11T02:21:08;3.63;;;1.93;;
769;SDS011;368;48.698;9.116;2022-09-11T02:23:35;3.10;;;2.43;;
769;SDS011;368;48.698;9.116;2022-09-11T02:26:02;3.37;;;2.20;;
769;SDS011;368;48.698;9.116;2022-09-11T02:28:31;2.23;;;2.00;;
769;SDS011;368;48.698;9.116;2022-09-11T02:30:58;2.40;;;2.20;;
769;SDS011;368;48.698;9.116;2022-09-11T02:33:28;4.87;;;2.33;;
769;SDS011;368;48.698;9.116;2022-09-11T02:35:58;3.50;;;1.90;;
769;SDS011;368;48.698;9.116;2022-09-11T02:38:40;2.53;;;2.30;;
769;SDS011;368;48.698;9.116;2022-09-11T02:41:18;2.53;;;2.20;;
769;SDS011;368;48.698;9.116;2022-09-11T02:43:55;4.17;;;2.60;;
769;SDS011;368;48.698;9.116;2022-09-11T02:46:39;4.73;;;2.70;;
769;SDS011;368;48.698;9.116;2022-09-11T02:49:31;2.83;;;2.50;;
769;SDS011;368;48.698;9.116;2022-09-11T02:52:11;4.87;;;2.80;;
769;SDS011;368;48.698;9.116;2022-09-11T02:54:48;2.90;;;2.70;;
769;SDS011;368;48.698;9.116;2022-09-11T02:57:22;2.90;;;2.60;;
769;SDS011;368;48.698;9.116;2022-09-11T02:59:55;3.70;;;2.67;;
769;SDS011;368;48.698;9.116;2022-09-11T03:02:25;5.70;;;2.60;;
769;SDS011;368;48.698;9.116;2022-09-11T03:04:53;3.93;;;3.00;;
769;SDS011;368;48.698;9.116;2022-09-11T03:07:20;4.90;;;2.90;;
769;SDS011;368;48.698;9.116;2022-09-11T03:09:47;5.73;;;2.90;;
769;SDS011;368;48.698;9.116;2022-09-11T03:12:14;2.73;;;2.53;;
769;SDS011;368;48.698;9.116;2022-09-11T03:14:41;3.30;;;3.00;;
769;SDS011;368;48.698;9.116;2022-09-11T03:17:09;5.33;;;2.63;;
769;SDS011;368;48.698;9.116;2022-09-11T03:19:37;4.20;;;3.23;;
769;SDS011;368;48.698;9.116;2022-09-11T03:22:04;2.87;;;2.40;;
769;SDS011;368;48.698;9.116;2022-09-11T03:24:30;3.20;;;2.90;;
769;SDS011;368;48.698;9.116;2022-09-11T03:26:57;2.60;;;2.40;;
769;SDS011;368;48.698;9.116;2022-09-11T03:29:24;3.43;;;2.50;;
769;SDS011;368;48.698;9.116;2022-09-11T03:31:51;3.70;;;3.30;;
769;SDS011;368;48.698;9.116;2022-09-11T03:34:19;2.53;;;2.33;;
769;SDS011;368;48.698;9.116;2022-09-11T03:36:47;2.67;;;2.43;;
769;SDS011;368;48.698;9.116;2022-09-11T03:39:13;3.20;;;2.73;;
769;SDS011;368;48.698;9.116;2022-09-11T03:41:40;3.87;;;3.07;;
769;SDS011;368;48.698;9.116;2022-09-11T03:44:07;5.80;;;3.60;;
769;SDS011;368;48.698;9.116;2022-09-11T03:46:36;3.70;;;2.60;;
769;SDS011;368;48.698;9.116;2022-09-11T03:49:03;5.77;;;2.47;;
769;SDS011;368;48.698;9.116;2022-09-11T03:51:31;2.90;;;2.70;;
769;SDS011;368;48.698;9.116;2022-09-11T03:53:59;4.10;;;3.00;;
769;SDS011;368;48.698;9.116;2022-09-11T03:56:26;2.83;;;2.53;;
769;SDS011;368;48.698;9.116;2022-09-11T03:58:53;3.20;;;2.87;;
769;SDS011;368;48.698;9.116;2022-09-11T04:01:22;3.60;;;3.30;;
769;SDS011;368;48.698;9.116;2022-09-11T04:03:49;3.50;;;3.00;;
769;SDS011;368;48.698;9.116;2022-09-11T04:06:16;3.50;;;3.20;;
769;SDS011;368;48.698;9.116;2022-09-11T04:08:45;6.20;;;3.70;;
769;SDS011;368;48.698;9.116;2022-09-11T04:11:12;3.27;;;2.97;;
769;SDS011;368;48.698;9.116;2022-09-11T04:13:39;3.10;;;2.80;;
769;SDS011;368;48.698;9.116;2022-09-11T04:16:09;3.67;;;3.37;;
769;SDS011;368;48.698;9.116;2022-09-11T04:18:38;4.33;;;3.10;;
769;SDS011;368;48.698;9.116;2022-09-11T04:21:06;6.10;;;4.03;;
769;SDS011;368;48.698;9.116;2022-09-11T04:23:34;3.60;;;3.27;;
769;SDS011;368;48.698;9.116;2022-09-11T04:26:02;4.20;;;3.83;;
769;SDS011;368;48.698;9.116;2022-09-11T04:28:38;5.53;;;3.60;;
769;SDS011;368;48.698;9.116;2022-09-11T04:31:05;4.80;;;3.60;;
769;SDS011;368;48.698;9.116;2022-09-11T04:33:33;3.70;;;3.40;;
769;SDS011;368;48.698;9.116;2022-09-11T04:36:02;3.70;;;3.40;;
769;SDS011;368;48.698;9.116;2022-09-11T04:38:31;6.43;;;3.87;;
769;SDS011;368;48.698;9.116;2022-09-11T04:40:58;9.03;;;4.67;;
769;SDS011;368;48.698;9.116;2022-09-11T04:43:27;4.77;;;4.30;;
769;SDS011;368;48.698;9.116;2022-09-11T04:45:58;5.07;;;4.57;;
769;SDS011;368;48.698;9.116;2022-09-11T04:48:25;8.60;;;5.00;;
769;SDS011;368;48.698;9.116;2022-09-11T04:50:57;5.20;;;4.70;;
769;SDS011;368;48.698;9.116;2022-09-11T04:53:25;5.27;;;4.77;;
769;SDS011;368;48.698;9.116;2022-09-11T04:55:59;5.27;;;4.70;;
769;SDS011;368;48.698;9.116;2022-09-11T04:58:28;5.40;;;5.00;;
769;SDS011;368;48.698;9.116;2022-09-11T05:00:55;5.00;;;4.60;;
769;SDS011;368;48.698;9.116;2022-09-11T05:03:22;5.53;;;5.03;;
769;SDS011;368;48.698;9.116;2022-09-11T05:05:49;5.13;;;4.63;;
769;SDS011;368;48.698;9.116;2022-09-11T05:08:16;5.10;;;4.70;;
769;SDS011;368;48.698;9.116;2022-09-11T05:10:44;5.50;;;4.00;;
769;SDS011;368;48.698;9.116;2022-09-11T05:13:11;5.37;;;4.97;;
769;SDS011;368;48.698;9.116;2022-09-11T05:15:40;5.10;;;4.70;;
769;SDS011;368;48.698;9.116;2022-09-11T05:18:07;5.37;;;4.87;;
769;SDS011;368;48.698;9.116;2022-09-11T05:20:35;5.43;;;4.90;;
769;SDS011;368;48.698;9.116;2022-09-11T05:23:03;5.47;;;4.90;;
769;SDS011;368;48.698;9.116;2022-09-11T05:25:31;5.57;;;5.07;;
769;SDS011;368;48.698;9.116;2022-09-11T05:27:57;5.10;;;4.60;;
769;SDS011;368;48.698;9.116;2022-09-11T05:30:24;6.00;;;5.50;;
769;SDS011;368;48.698;9.116;2022-09-11T05:32:53;5.80;;;5.30;;
769;SDS011;368;48.698;9.116;2022-09-11T05:35:20;5.83;;;5.33;;
769;SDS011;368;48.698;9.116;2022-09-11T05:37:49;5.43;;;4.27;;
769;SDS011;368;48.698;9.116;2022-09-11T05:40:17;5.77;;;5.27;;
769;SDS011;368;48.698;9.116;2022-09-11T05:42:43;5.60;;;4.90;;
769;SDS011;368;48.698;9.116;2022-09-11T05:45:11;5.33;;;4.83;;
769;SDS011;368;48.698;9.116;2022-09-11T05:47:38;5.67;;;5.17;;
769;SDS011;368;48.698;9.116;2022-09-11T05:50:07;6.67;;;5.30;;
769;SDS011;368;48.698;9.116;2022-09-11T05:52:37;6.17;;;5.50;;
769;SDS011;368;48.698;9.116;2022-09-11T05:55:04;5.87;;;5.27;;
769;SDS011;368;48.698;9.116;2022-09-11T05:57:31;5.27;;;4.77;;
769;SDS011;368;48.698;9.116;2022-09-11T05:59:58;5.60;;;4.57;;
769;SDS011;368;48.698;9.116;2022-09-11T06:02:24;9.43;;;5.50;;
769;SDS011;368;48.698;9.116;2022-09-11T06:04:51;6.80;;;5.13;;
769;SDS011;368;48.698;9.116;2022-09-11T06:07:19;5.13;;;4.73;;
769;SDS011;368;48.698;9.116;2022-09-11T06:09:46;5.10;;;4.80;;
769;SDS011;368;48.698;9.116;2022-09-11T06:12:13;5.43;;;4.93;;
769;SDS011;368;48.698;9.116;2022-09-11T06:14:40;5.40;;;4.90;;
769;SDS011;368;48.698;9.116;2022-09-11T06:17:07;7.07;;;5.53;;
769;SDS011;368;48.698;9.116;2022-09-11T06:19:33;5.13;;;4.63;;
769;SDS011;368;48.698;9.116;2022-09-11T06:22:00;5.33;;;4.90;;
769;SDS011;368;48.698;9.116;2022-09-11T06:24:28;5.17;;;4.77;;
769;SDS011;368;48.698;9.116;2022-09-11T06:26:55;5.40;;;5.00;;
769;SDS011;368;48.698;9.116;2022-09-11T06:29:22;5.47;;;4.60;;
769;SDS011;368;48.698;9.116;2022-09-11T06:31:48;6.00;;;5.47;;
769;SDS011;368;48.698;9.116;2022-09-11T06:34:15;5.33;;;4.87;;
769;SDS011;368;48.698;9.116;2022-09-11T06:36:44;6.00;;;5.50;;
769;SDS011;368;48.698;9.116;2022-09-11T06:39:12;6.23;;;5.73;;
769;SDS011;368;48.698;9.116;2022-09-11T06:41:40;6.80;;;5.77;;
769;SDS011;368;48.698;9.116;2022-09-11T06:44:07;6.10;;;5.60;;
769;SDS011;368;48.698;9.116;2022-09-11T06:46:34;5.70;;;5.23;;
769;SDS011;368;48.698;9.116;2022-09-11T06:49:01;6.00;;;5.50;;
769;SDS011;368;48.698;9.116;2022-09-11T06:51:28;5.90;;;5.40;;
769;SDS011;368;48.698;9.116;2022-09-11T06:53:56;10.53;;;5.73;;
769;SDS011;368;48.698;9.116;2022-09-11T06:56:26;6.47;;;5.97;;
769;SDS011;368;48.698;9.116;2022-09-11T06:58:55;6.10;;;5.50;;
769;SDS011;368;48.698;9.116;2022-09-11T07:01:22;9.00;;;6.10;;
769;SDS011;368;48.698;9.116;2022-09-11T07:03:50;6.33;;;5.80;;
769;SDS011;368;48.698;9.116;2022-09-11T07:06:19;6.10;;;5.50;;
769;SDS011;368;48.698;9.116;2022-09-11T07:08:48;5.10;;;4.70;;
769;SDS011;368;48.698;9.116;2022-09-11T07:11:16;6.60;;;6.00;;
769;SDS011;368;48.698;9.116;2022-09-11T07:13:43;6.47;;;5.67;;
769;SDS011;368;48.698;9.116;2022-09-11T07:16:11;5.77;;;5.00;;
769;SDS011;368;48.698;9.116;2022-09-11T07:18:39;7.77;;;5.53;;
769;SDS011;368;48.698;9.116;2022-09-11T07:21:08;5.87;;;5.37;;
769;SDS011;368;48.698;9.116;2022-09-11T07:23:36;7.73;;;5.73;;
769;SDS011;368;48.698;9.116;2022-09-11T07:26:03;7.73;;;5.83;;
769;SDS011;368;48.698;9.116;2022-09-11T07:28:32;6.47;;;5.90;;
769;SDS011;368;48.698;9.116;2022-09-11T07:31:03;8.00;;;5.57;;
769;SDS011;368;48.698;9.116;2022-09-11T07:33:32;6.67;;;6.07;;
769;SDS011;368;48.698;9.116;2022-09-11T07:35:59;7.70;;;6.40;;
769;SDS011;368;48.698;9.116;2022-09-11T07:38:27;7.13;;;6.27;;
769;SDS011;368;48.698;9.116;2022-09-11T07:40:55;6.67;;;5.93;;
769;SDS011;368;48.698;9.116;2022-09-11T07:43:22;7.43;;;6.80;;
769;SDS011;368;48.698;9.116;2022-09-11T07:45:51;7.00;;;6.40;;
769;SDS011;368;48.698;9.116;2022-09-11T07:48:20;7.53;;;6.83;;
769;SDS011;368;48.698;9.116;2022-09-11T07:50:55;7.33;;;6.73;;
769;SDS011;368;48.698;9.116;2022-09-11T07:53:23;7.70;;;6.90;;
769;SDS011;368;48.698;9.116;2022-09-11T07:55:50;8.33;;;7.63;;
769;SDS011;368;48.698;9.116;2022-09-11T07:58:17;8.53;;;6.23;;
769;SDS011;368;48.698;9.116;2022-09-11T08:00:44;6.70;;;6.10;;
769;SDS011;368;48.698;9.116;2022-09-11T08:03:11;8.03;;;7.33;;
769;SDS011;368;48.698;9.116;2022-09-11T08:05:38;6.83;;;6.30;;
769;SDS011;368;48.698;9.116;2022-09-11T08:08:06;7.27;;;6.77;;
769;SDS011;368;48.698;9.116;2022-09-11T08:10:35;6.70;;;6.20;;
769;SDS011;368;48.698;9.116;2022-09-11T08:13:04;6.93;;;6.33;;
769;SDS011;368;48.698;9.116;2022-09-11T08:15:32;6.90;;;6.30;;
769;SDS011;368;48.698;9.116;2022-09-11T08:17:59;6.10;;;5.60;;
769;SDS011;368;48.698;9.116;2022-09-11T08:20:26;7.10;;;6.50;;
769;SDS011;368;48.698;9.116;2022-09-11T08:22:53;7.73;;;7.03;;
769;SDS011;368;48.698;9.116;2022-09-11T08:25:21;7.63;;;6.83;;
769;SDS011;368;48.698;9.116;2022-09-11T08:27:48;7.63;;;6.93;;
769;SDS011;368;48.698;9.116;2022-09-11T08:30:16;6.97;;;6.33;;
769;SDS011;368;48.698;9.116;2022-09-11T08:32:43;6.87;;;6.27;;
769;SDS011;368;48.698;9.116;2022-09-11T08:35:10;7.33;;;6.70;;
769;SDS011;368;48.698;9.116;2022-09-11T08:37:37;6.97;;;6.27;;
769;SDS011;368;48.698;9.116;2022-09-11T08:40:05;7.20;;;6.60;;
769;SDS011;368;48.698;9.116;2022-09-11T08:42:35;6.60;;;6.10;;
769;SDS011;368;48.698;9.116;2022-09-11T08:45:05;6.70;;;5.63;;
769;SDS011;368;48.698;9.116;2022-09-11T08:47:36;6.43;;;5.83;;
769;SDS011;368;48.698;9.116;2022-09-11T08:50:04;7.57;;;6.10;;
769;SDS011;368;48.698;9.116;2022-09-11T08:52:34;8.27;;;7.47;;
769;SDS011;368;48.698;9.116;2022-09-11T08:55:02;6.70;;;6.13;;
769;SDS011;368;48.698;9.116;2022-09-11T08:57:33;6.20;;;5.70;;
769;SDS011;368;48.698;9.116;2022-09-11T09:00:07;5.87;;;5.33;;
769;SDS011;368;48.698;9.116;2022-09-11T09:02:46;6.73;;;6.23;;
769;SDS011;368;48.698;9.116;2022-09-11T09:05:39;6.50;;;5.90;;
769;SDS011;368;48.698;9.116;2022-09-11T09:08:16;5.97;;;5.37;;
769;SDS011;368;48.698;9.116;2022-09-11T09:10:56;5.33;;;4.87;;
769;SDS011;368;48.698;9.116;2022-09-11T09:13:42;5.30;;;4.80;;
769;SDS011;368;48.698;9.116;2022-09-11T09:16:24;5.90;;;5.40;;
769;SDS011;368;48.698;9.116;2022-09-11T09:19:00;5.93;;;5.53;;
769;SDS011;368;48.698;9.116;2022-09-11T09:21:33;4.80;;;4.50;;
769;SDS011;368;48.698;9.116;2022-09-11T09:24:07;5.70;;;5.30;;
769;SDS011;368;48.698;9.116;2022-09-11T09:26:43;5.43;;;4.93;;
769;SDS011;368;48.698;9.116;2022-09-11T09:29:16;6.47;;;5.87;;
769;SDS011;368;48.698;9.116;2022-09-11T09:31:46;5.87;;;5.37;;
769;SDS011;368;48.698;9.116;2022-09-11T09:34:16;5.90;;;5.40;;
769;SDS011;368;48.698;9.116;2022-09-11T09:36:46;5.77;;;5.33;;
769;SDS011;368;48.698;9.116;2022-09-11T09:39:20;6.17;;;5.67;;
769;SDS011;368;48.698;9.116;2022-09-11T09:41:59;5.60;;;5.20;;
769;SDS011;368;48.698;9.116;2022-09-11T09:44:56;5.63;;;5.20;;
769;SDS011;368;48.698;9.116;2022-09-11T09:47:38;5.30;;;4.90;;
769;SDS011;368;48.698;9.116;2022-09-11T09:50:09;4.90;;;4.50;;
769;SDS011;368;48.698;9.116;2022-09-11T09:52:43;5.37;;;4.97;;
769;SDS011;368;48.698;9.116;2022-09-11T09:55:13;5.33;;;4.93;;
769;SDS011;368;48.698;9.116;2022-09-11T09:57:41;5.30;;;4.90;;
769;SDS011;368;48.698;9.116;2022-09-11T10:00:13;5.77;;;5.20;;
769;SDS011;368;48.698;9.116;2022-09-11T10:02:44;7.20;;;6.67;;
769;SDS011;368;48.698;9.116;2022-09-11T10:05:21;6.47;;;5.97;;
769;SDS011;368;48.698;9.116;2022-09-11T10:07:53;6.70;;;6.10;;
769;SDS011;368;48.698;9.116;2022-09-11T10:10:23;6.27;;;5.67;;
769;SDS011;368;48.698;9.116;2022-09-11T10:12:52;6.80;;;6.30;;
769;SDS011;368;48.698;9.116;2022-09-11T10:15:21;8.37;;;6.90;;
769;SDS011;368;48.698;9.116;2022-09-11T10:17:49;7.17;;;6.57;;
769;SDS011;368;48.698;9.116;2022-09-11T10:20:21;6.73;;;6.27;;
769;SDS011;368;48.698;9.116;2022-09-11T10:22:51;6.10;;;5.70;;
769;SDS011;368;48.698;9.116;2022-09-11T10:25:19;6.90;;;6.40;;
769;SDS011;368;48.698;9.116;2022-09-11T10:27:54;6.60;;;6.10;;
769;SDS011;368;48.698;9.116;2022-09-11T10:30:29;6.50;;;5.93;;
769;SDS011;368;48.698;9.116;2022-09-11T10:32:59;6.73;;;6.00;;
769;SDS011;368;48.698;9.116;2022-09-11T10:35:29;6.57;;;5.97;;
769;SDS011;368;48.698;9.116;2022-09-11T10:38:13;6.33;;;5.83;;
769;SDS011;368;48.698;9.116;2022-09-11T10:40:53;6.17;;;5.67;;
769;SDS011;368;48.698;9.116;2022-09-11T10:43:23;5.70;;;5.30;;
769;SDS011;368;48.698;9.116;2022-09-11T10:46:04;7.10;;;6.50;;
769;SDS011;368;48.698;9.116;2022-09-11T10:48:50;6.63;;;6.03;;
769;SDS011;368;48.698;9.116;2022-09-11T10:51:19;8.00;;;6.60;;
769;SDS011;368;48.698;9.116;2022-09-11T10:53:49;6.43;;;5.93;;
769;SDS011;368;48.698;9.116;2022-09-11T10:56:24;6.30;;;5.70;;
769;SDS011;368;48.698;9.116;2022-09-11T10:58:53;4.87;;;4.53;;
769;SDS011;368;48.698;9.116;2022-09-11T11:01:26;5.50;;;5.07;;
769;SDS011;368;48.698;9.116;2022-09-11T11:03:54;5.80;;;5.30;;
769;SDS011;368;48.698;9.116;2022-09-11T11:06:25;5.10;;;4.70;;
769;SDS011;368;48.698;9.116;2022-09-11T11:09:12;4.80;;;4.40;;
769;SDS011;368;48.698;9.116;2022-09-11T11:11:52;5.17;;;4.63;;
769;SDS011;368;48.698;9.116;2022-09-11T11:14:43;5.60;;;5.20;;
769;SDS011;368;48.698;9.116;2022-09-11T11:17:22;4.77;;;4.37;;
769;SDS011;368;48.698;9.116;2022-09-11T11:20:09;5.27;;;4.90;;
769;SDS011;368;48.698;9.116;2022-09-11T11:22:54;5.80;;;5.20;;
769;SDS011;368;48.698;9.116;2022-09-11T11:25:32;5.47;;;5.07;;
769;SDS011;368;48.698;9.116;2022-09-11T11:28:11;5.17;;;4.77;;
769;SDS011;368;48.698;9.116;2022-09-11T11:30:57;6.00;;;5.60;;
769;SDS011;368;48.698;9.116;2022-09-11T11:33:46;7.17;;;6.47;;
769;SDS011;368;48.698;9.116;2022-09-11T11:36:38;6.23;;;5.73;;
769;SDS011;368;48.698;9.116;2022-09-11T11:39:14;6.23;;;5.73;;
769;SDS011;368;48.698;9.116;2022-09-11T11:41:47;6.77;;;6.17;;
769;SDS011;368;48.698;9.116;2022-09-11T11:44:25;5.67;;;5.20;;
769;SDS011;368;48.698;9.116;2022-09-11T11:46:57;5.40;;;4.90;;
769;SDS011;368;48.698;9.116;2022-09-11T11:49:30;5.77;;;5.20;;
769;SDS011;368;48.698;9.116;2022-09-11T11:52:11;6.37;;;5.87;;
769;SDS011;368;48.698;9.116;2022-09-11T11:54:50;6.40;;;5.80;;
769;SDS011;368;48.698;9.116;2022-09-11T11:57:22;5.53;;;5.13;;
769;SDS011;368;48.698;9.116;2022-09-11T11:59:53;6.53;;;5.93;;
769;SDS011;368;48.698;9.116;2022-09-11T12:02:23;5.70;;;5.00;;
769;SDS011;368;48.698;9.116;2022-09-11T12:04:57;5.50;;;5.10;;
769;SDS011;368;48.698;9.116;2022-09-11T12:07:29;5.63;;;5.23;;
769;SDS011;368;48.698;9.116;2022-09-11T12:09:58;6.50;;;6.00;;
769;SDS011;368;48.698;9.116;2022-09-11T12:12:27;5.40;;;5.00;;
769;SDS011;368;48.698;9.116;2022-09-11T12:15:00;5.70;;;5.20;;
769;SDS011;368;48.698;9.116;2022-09-11T12:17:30;6.33;;;5.83;;
769;SDS011;368;48.698;9.116;2022-09-11T12:20:13;6.17;;;5.73;;
769;SDS011;368;48.698;9.116;2022-09-11T12:22:55;5.90;;;5.50;;
769;SDS011;368;48.698;9.116;2022-09-11T12:28:21;5.70;;;5.30;;
769;SDS011;368;48.698;9.116;2022-09-11T12:31:00;5.40;;;4.90;;
769;SDS011;368;48.698;9.116;2022-09-11T12:36:20;5.97;;;5.50;;
769;SDS011;368;48.698;9.116;2022-09-11T12:38:51;5.53;;;5.13;;
769;SDS011;368;48.698;9.116;2022-09-11T12:41:21;5.40;;;4.97;;
769;SDS011;368;48.698;9.116;2022-09-11T12:43:52;5.23;;;4.73;;
769;SDS011;368;48.698;9.116;2022-09-11T12:49:32;5.77;;;5.20;;
769;SDS011;368;48.698;9.116;2022-09-11T12:52:02;5.33;;;4.83;;
769;SDS011;368;48.698;9.116;2022-09-11T12:54:30;4.50;;;4.10;;
769;SDS011;368;48.698;9.116;2022-09-11T12:57:04;5.23;;;4.83;;
769;SDS011;368;48.698;9.116;2022-09-11T12:59:33;5.77;;;5.27;;
769;SDS011;368;48.698;9.116;2022-09-11T13:02:03;5.00;;;4.60;;
769;SDS011;368;48.698;9.116;2022-09-11T13:04:44;5.63;;;4.90;;
769;SDS011;368;48.698;9.116;2022-09-11T13:07:20;5.53;;;5.03;;
769;SDS011;368;48.698;9.116;2022-09-11T13:09:52;5.50;;;5.00;;
769;SDS011;368;48.698;9.116;2022-09-11T13:12:43;5.23;;;4.83;;
769;SDS011;368;48.698;9.116;2022-09-11T13:17:57;4.63;;;4.33;;
769;SDS011;368;48.698;9.116;2022-09-11T13:20:24;7.03;;;6.17;;
769;SDS011;368;48.698;9.116;2022-09-11T13:22:52;5.67;;;5.20;;
769;SDS011;368;48.698;9.116;2022-09-11T13:25:35;4.80;;;4.50;;
769;SDS011;368;48.698;9.116;2022-09-11T13:28:05;5.67;;;5.27;;
769;SDS011;368;48.698;9.116;2022-09-11T13:30:32;6.27;;;5.77;;
769;SDS011;368;48.698;9.116;2022-09-11T13:33:02;5.63;;;5.13;;
769;SDS011;368;48.698;9.116;2022-09-11T13:35:31;6.30;;;5.80;;
769;SDS011;368;48.698;9.116;2022-09-11T13:38:01;5.70;;;5.30;;
769;SDS011;368;48.698;9.116;2022-09-11T13:40:40;6.53;;;5.60;;
769;SDS011;368;48.698;9.116;2022-09-11T13:43:09;7.23;;;5.90;;
769;SDS011;368;48.698;9.116;2022-09-11T13:45:40;5.77;;;5.27;;
769;SDS011;368;48.698;9.116;2022-09-11T13:48:11;6.20;;;5.70;;
769;SDS011;368;48.698;9.116;2022-09-11T13:50:44;5.80;;;5.20;;
769;SDS011;368;48.698;9.116;2022-09-11T13:53:13;5.50;;;5.07;;
769;SDS011;368;48.698;9.116;2022-09-11T13:55:42;5.57;;;5.10;;
769;SDS011;368;48.698;9.116;2022-09-11T13:58:19;5.20;;;4.80;;
769;SDS011;368;48.698;9.116;2022-09-11T14:00:48;5.60;;;5.13;;
769;SDS011;368;48.698;9.116;2022-09-11T14:03:20;5.13;;;4.73;;
769;SDS011;368;48.698;9.116;2022-09-11T14:05:52;5.33;;;5.03;;
769;SDS011;368;48.698;9.116;2022-09-11T14:08:24;5.10;;;4.70;;
769;SDS011;368;48.698;9.116;2022-09-11T14:10:54;5.63;;;5.23;;
769;SDS011;368;48.698;9.116;2022-09-11T14:13:23;5.13;;;4.73;;
769;SDS011;368;48.698;9.116;2022-09-11T14:15:58;5.60;;;5.20;;
769;SDS011;368;48.698;9.116;2022-09-11T14:18:28;5.70;;;5.20;;
769;SDS011;368;48.698;9.116;2022-09-11T14:21:00;5.80;;;5.40;;
769;SDS011;368;48.698;9.116;2022-09-11T14:23:33;5.67;;;5.23;;
769;SDS011;368;48.698;9.116;2022-09-11T14:26:10;5.03;;;4.50;;
769;SDS011;368;48.698;9.116;2022-09-11T14:28:41;5.63;;;5.23;;
769;SDS011;368;48.698;9.116;2022-09-11T14:31:24;5.20;;;4.80;;
769;SDS011;368;48.698;9.116;2022-09-11T14:34:05;4.80;;;4.50;;
769;SDS011;368;48.698;9.116;2022-09-11T14:36:37;5.00;;;4.60;;
769;SDS011;368;48.698;9.116;2022-09-11T14:39:09;4.83;;;4.43;;
769;SDS011;368;48.698;9.116;2022-09-11T14:41:39;4.77;;;4.47;;
769;SDS011;368;48.698;9.116;2022-09-11T14:44:08;3.60;;;3.40;;
769;SDS011;368;48.698;9.116;2022-09-11T14:46:37;4.50;;;3.80;;
769;SDS011;368;48.698;9.116;2022-09-11T14:49:03;4.50;;;4.20;;
769;SDS011;368;48.698;9.116;2022-09-11T14:51:33;4.30;;;4.00;;
769;SDS011;368;48.698;9.116;2022-09-11T14:54:01;4.70;;;4.37;;
769;SDS011;368;48.698;9.116;2022-09-11T14:56:30;4.87;;;4.57;;
769;SDS011;368;48.698;9.116;2022-09-11T14:58:57;4.37;;;4.00;;
769;SDS011;368;48.698;9.116;2022-09-11T15:01:23;4.23;;;3.93;;
769;SDS011;368;48.698;9.116;2022-09-11T15:03:50;4.67;;;4.27;;
769;SDS011;368;48.698;9.116;2022-09-11T15:06:18;4.93;;;4.57;;
769;SDS011;368;48.698;9.116;2022-09-11T15:08:46;4.27;;;3.97;;
769;SDS011;368;48.698;9.116;2022-09-11T15:11:12;5.37;;;4.97;;
769;SDS011;368;48.698;9.116;2022-09-11T15:13:41;5.47;;;4.97;;
769;SDS011;368;48.698;9.116;2022-09-11T15:16:09;5.30;;;4.90;;
769;SDS011;368;48.698;9.116;2022-09-11T15:18:35;4.10;;;3.80;;
769;SDS011;368;48.698;9.116;2022-09-11T15:21:04;4.57;;;4.17;;
769;SDS011;368;48.698;9.116;2022-09-11T15:23:31;4.47;;;4.17;;
769;SDS011;368;48.698;9.116;2022-09-11T15:25:58;4.93;;;4.63;;
769;SDS011;368;48.698;9.116;2022-09-11T15:28:27;4.40;;;4.10;;
769;SDS011;368;48.698;9.116;2022-09-11T15:30:57;4.63;;;4.33;;
769;SDS011;368;48.698;9.116;2022-09-11T15:33:25;4.90;;;4.50;;
769;SDS011;368;48.698;9.116;2022-09-11T15:35:52;4.77;;;3.90;;
769;SDS011;368;48.698;9.116;2022-09-11T15:38:21;4.90;;;4.60;;
769;SDS011;368;48.698;9.116;2022-09-11T15:40:50;4.13;;;3.83;;
769;SDS011;368;48.698;9.116;2022-09-11T15:43:20;4.70;;;4.40;;
769;SDS011;368;48.698;9.116;2022-09-11T15:45:48;4.70;;;4.30;;
769;SDS011;368;48.698;9.116;2022-09-11T15:48:16;5.97;;;5.40;;
769;SDS011;368;48.698;9.116;2022-09-11T15:50:47;4.77;;;4.47;;
769;SDS011;368;48.698;9.116;2022-09-11T15:53:26;4.97;;;4.50;;
769;SDS011;368;48.698;9.116;2022-09-11T15:56:00;4.57;;;4.27;;
769;SDS011;368;48.698;9.116;2022-09-11T15:58:30;5.83;;;4.80;;
769;SDS011;368;48.698;9.116;2022-09-11T16:00:58;5.00;;;4.60;;
769;SDS011;368;48.698;9.116;2022-09-11T16:03:27;4.47;;;4.07;;
769;SDS011;368;48.698;9.116;2022-09-11T16:05:54;4.67;;;4.30;;
769;SDS011;368;48.698;9.116;2022-09-11T16:08:21;4.57;;;4.27;;
769;SDS011;368;48.698;9.116;2022-09-11T16:10:48;5.60;;;5.10;;
769;SDS011;368;48.698;9.116;2022-09-11T16:13:15;6.60;;;5.13;;
769;SDS011;368;48.698;9.116;2022-09-11T16:15:42;5.40;;;4.90;;
769;SDS011;368;48.698;9.116;2022-09-11T16:18:09;5.20;;;4.90;;
769;SDS011;368;48.698;9.116;2022-09-11T16:20:38;5.13;;;4.73;;
769;SDS011;368;48.698;9.116;2022-09-11T16:23:07;10.60;;;9.60;;